sensor_id;sensor_type;location;lat;lon;timestamp;pressure;altitude;pressure_sealevel;temperature;humidity
43503;BME280;29098;48.184;16.298;2023-05-21T00:01:00;99451.06;;;14.18;100.00
43503;BME280;29098;48.184;16.298;2023-05-21T00:03:26;99477.78;;;14.10;100.00
43503;BME280;29098;48.184;16.298;2023-05-21T00:05:53;99527.34;;;14.23;100.00
43503;BME280;29098;48.184;16.298;2023-05-21T00:08:19;99508.59;;;14.18;100.00
43503;BME280;29098;48.184;16.298;2023-05-21T00:10:45;99498.97;;;14.10;100.00
43503;BME280;29098;48.184;16.298;2023-05-21T00:13:10;99484.31;;;14.14;100.00
43503;BME280;29098;48.184;16.298;2023-05-21T00:15:36;99507.78;;;14.31;100.00
43503;BME280;29098;48.184;16.298;2023-05-21T00:18:01;99464.53;;;14.10;100.00
43503;BME280;29098;48.184;16.298;2023-05-21T00:20:27;99483.69;;;14.12;100.00
43503;BME280;29098;48.184;16.298;2023-05-21T00:22:59;99495.53;;;14.09;100.00
43503;BME280;29098;48.184;16.298;2023-05-21T00:25:27;99496.97;;;14.25;100.00
43503;BME280;29098;48.184;16.298;2023-05-21T00:27:53;99463.09;;;14.01;100.00
43503;BME280;29098;48.184;16.298;2023-05-21T00:30:19;99489.00;;;14.12;100.00
43503;BME280;29098;48.184;16.298;2023-05-21T00:32:45;99462.06;;;14.08;100.00
43503;BME280;29098;48.184;16.298;2023-05-21T00:35:10;99479.03;;;14.14;100.00
43503;BME280;29098;48.184;16.298;2023-05-21T00:37:36;99523.72;;;14.31;100.00
43503;BME280;29098;48.184;16.298;2023-05-21T00:40:02;99492.09;;;14.22;100.00
43503;BME280;29098;48.184;16.298;2023-05-21T00:42:32;99502.88;;;14.28;100.00
43503;BME280;29098;48.184;16.298;2023-05-21T00:44:58;99505.72;;;14.06;100.00
43503;BME280;29098;48.184;16.298;2023-05-21T00:47:24;99458.38;;;13.89;100.00
43503;BME280;29098;48.184;16.298;2023-05-21T00:49:51;99470.06;;;14.29;100.00
43503;BME280;29098;48.184;16.298;2023-05-21T00:52:17;99491.03;;;14.10;100.00
43503;BME280;29098;48.184;16.298;2023-05-21T00:54:50;99453.88;;;13.83;100.00
43503;BME280;29098;48.184;16.298;2023-05-21T00:57:18;99491.41;;;13.93;100.00
43503;BME280;29098;48.184;16.298;2023-05-21T00:59:50;99484.06;;;13.95;100.00
43503;BME280;29098;48.184;16.298;2023-05-21T01:02:16;99477.09;;;13.67;100.00
43503;BME280;29098;48.184;16.298;2023-05-21T01:04:48;99463.19;;;13.65;100.00
43503;BME280;29098;48.184;16.298;2023-05-21T01:07:14;99466.47;;;13.67;100.00
43503;BME280;29098;48.184;16.298;2023-05-21T01:09:40;99486.00;;;13.66;100.00
43503;BME280;29098;48.184;16.298;2023-05-21T01:12:06;99469.50;;;13.64;100.00
43503;BME280;29098;48.184;16.298;2023-05-21T01:14:34;99511.53;;;13.81;100.00
43503;BME280;29098;48.184;16.298;2023-05-21T01:17:01;99496.22;;;13.69;100.00
43503;BME280;29098;48.184;16.298;2023-05-21T01:19:27;99479.06;;;13.59;100.00
43503;BME280;29098;48.184;16.298;2023-05-21T01:21:56;99494.31;;;13.50;100.00
43503;BME280;29098;48.184;16.298;2023-05-21T01:24:24;99467.03;;;13.49;100.00
43503;BME280;29098;48.184;16.298;2023-05-21T01:26:50;99497.56;;;13.45;100.00
43503;BME280;29098;48.184;16.298;2023-05-21T01:29:16;99465.94;;;13.43;100.00
43503;BME280;29098;48.184;16.298;2023-05-21T01:37:15;99478.72;;;13.33;100.00
43503;BME280;29098;48.184;16.298;2023-05-21T01:39:46;99471.63;;;13.40;100.00
43503;BME280;29098;48.184;16.298;2023-05-21T01:42:17;99443.66;;;13.24;100.00
43503;BME280;29098;48.184;16.298;2023-05-21T01:44:44;99469.69;;;13.49;100.00
43503;BME280;29098;48.184;16.298;2023-05-21T01:47:10;99435.84;;;13.51;100.00
43503;BME280;29098;48.184;16.298;2023-05-21T01:49:36;99454.47;;;13.29;100.00
43503;BME280;29098;48.184;16.298;2023-05-21T01:52:02;99469.56;;;13.36;100.00
43503;BME280;29098;48.184;16.298;2023-05-21T01:54:27;99478.22;;;13.51;100.00
43503;BME280;29098;48.184;16.298;2023-05-21T01:56:55;99466.28;;;13.27;100.00
43503;BME280;29098;48.184;16.298;2023-05-21T01:59:21;99466.88;;;13.22;100.00
43503;BME280;29098;48.184;16.298;2023-05-21T02:01:46;99472.97;;;13.23;100.00
43503;BME280;29098;48.184;16.298;2023-05-21T02:04:11;99441.56;;;13.06;100.00
43503;BME280;29098;48.184;16.298;2023-05-21T02:06:37;99449.84;;;13.03;100.00
43503;BME280;29098;48.184;16.298;2023-05-21T02:09:04;99436.72;;;13.17;100.00
43503;BME280;29098;48.184;16.298;2023-05-21T02:11:29;99442.09;;;12.95;100.00
43503;BME280;29098;48.184;16.298;2023-05-21T02:13:55;99475.97;;;13.06;100.00
43503;BME280;29098;48.184;16.298;2023-05-21T02:16:21;99453.28;;;12.97;100.00
43503;BME280;29098;48.184;16.298;2023-05-21T02:18:47;99431.94;;;12.98;100.00
43503;BME280;29098;48.184;16.298;2023-05-21T02:21:15;99465.75;;;13.03;100.00
43503;BME280;29098;48.184;16.298;2023-05-21T02:23:41;99464.03;;;12.88;100.00
43503;BME280;29098;48.184;16.298;2023-05-21T02:26:06;99442.72;;;12.68;100.00
43503;BME280;29098;48.184;16.298;2023-05-21T02:28:33;99479.56;;;12.98;100.00
43503;BME280;29098;48.184;16.298;2023-05-21T02:30:58;99484.25;;;13.03;100.00
43503;BME280;29098;48.184;16.298;2023-05-21T02:33:24;99418.41;;;12.80;100.00
43503;BME280;29098;48.184;16.298;2023-05-21T02:35:50;99457.59;;;12.98;100.00
43503;BME280;29098;48.184;16.298;2023-05-21T02:38:15;99475.41;;;12.82;100.00
43503;BME280;29098;48.184;16.298;2023-05-21T02:40:44;99444.03;;;12.79;100.00
43503;BME280;29098;48.184;16.298;2023-05-21T02:43:10;99464.25;;;12.87;100.00
43503;BME280;29098;48.184;16.298;2023-05-21T02:45:35;99419.03;;;12.88;100.00
43503;BME280;29098;48.184;16.298;2023-05-21T02:48:00;99475.03;;;12.92;100.00
43503;BME280;29098;48.184;16.298;2023-05-21T02:50:26;99448.09;;;12.75;100.00
43503;BME280;29098;48.184;16.298;2023-05-21T02:52:51;99452.16;;;12.78;100.00
43503;BME280;29098;48.184;16.298;2023-05-21T02:55:17;99455.06;;;12.90;100.00
43503;BME280;29098;48.184;16.298;2023-05-21T02:57:42;99446.50;;;12.87;100.00
43503;BME280;29098;48.184;16.298;2023-05-21T03:00:08;99454.78;;;12.78;100.00
43503;BME280;29098;48.184;16.298;2023-05-21T03:02:34;99470.16;;;12.89;100.00
43503;BME280;29098;48.184;16.298;2023-05-21T03:05:00;99469.28;;;12.82;100.00
43503;BME280;29098;48.184;16.298;2023-05-21T03:07:25;99483.72;;;12.79;100.00
43503;BME280;29098;48.184;16.298;2023-05-21T03:09:51;99475.69;;;12.94;100.00
43503;BME280;29098;48.184;16.298;2023-05-21T03:12:16;99431.66;;;12.86;100.00
43503;BME280;29098;48.184;16.298;2023-05-21T03:14:42;99476.31;;;12.68;100.00
43503;BME280;29098;48.184;16.298;2023-05-21T03:17:08;99465.44;;;12.56;100.00
43503;BME280;29098;48.184;16.298;2023-05-21T03:19:39;99434.16;;;12.59;100.00
43503;BME280;29098;48.184;16.298;2023-05-21T03:22:04;99391.16;;;12.51;100.00
43503;BME280;29098;48.184;16.298;2023-05-21T03:24:30;99453.63;;;12.58;100.00
43503;BME280;29098;48.184;16.298;2023-05-21T03:26:58;99466.16;;;12.71;100.00
43503;BME280;29098;48.184;16.298;2023-05-21T03:29:23;99441.53;;;12.71;100.00
43503;BME280;29098;48.184;16.298;2023-05-21T03:31:53;99417.13;;;12.69;100.00
43503;BME280;29098;48.184;16.298;2023-05-21T03:34:18;99410.03;;;12.47;100.00
43503;BME280;29098;48.184;16.298;2023-05-21T03:36:45;99444.22;;;12.49;100.00
43503;BME280;29098;48.184;16.298;2023-05-21T03:39:10;99489.53;;;12.68;100.00
43503;BME280;29098;48.184;16.298;2023-05-21T03:41:36;99487.06;;;12.66;100.00
43503;BME280;29098;48.184;16.298;2023-05-21T03:44:02;99419.47;;;12.57;100.00
43503;BME280;29098;48.184;16.298;2023-05-21T03:46:27;99433.16;;;12.67;100.00
43503;BME280;29098;48.184;16.298;2023-05-21T03:48:53;99442.41;;;12.78;100.00
43503;BME280;29098;48.184;16.298;2023-05-21T03:51:18;99477.28;;;12.67;100.00
43503;BME280;29098;48.184;16.298;2023-05-21T03:53:44;99486.69;;;12.69;100.00
43503;BME280;29098;48.184;16.298;2023-05-21T03:56:10;99483.66;;;12.72;100.00
43503;BME280;29098;48.184;16.298;2023-05-21T03:58:35;99469.19;;;12.68;100.00
43503;BME280;29098;48.184;16.298;2023-05-21T04:01:01;99437.16;;;12.56;100.00
43503;BME280;29098;48.184;16.298;2023-05-21T04:03:27;99476.09;;;12.69;100.00
43503;BME280;29098;48.184;16.298;2023-05-21T04:05:53;99481.47;;;12.76;100.00
43503;BME280;29098;48.184;16.298;2023-05-21T04:08:18;99413.75;;;12.53;100.00
43503;BME280;29098;48.184;16.298;2023-05-21T04:10:43;99474.41;;;12.90;100.00
43503;BME280;29098;48.184;16.298;2023-05-21T04:13:09;99481.06;;;12.79;100.00
43503;BME280;29098;48.184;16.298;2023-05-21T04:15:34;99471.63;;;12.70;100.00
43503;BME280;29098;48.184;16.298;2023-05-21T04:18:00;99467.31;;;12.91;100.00
43503;BME280;29098;48.184;16.298;2023-05-21T04:20:25;99484.06;;;12.98;100.00
43503;BME280;29098;48.184;16.298;2023-05-21T04:22:51;99480.75;;;12.96;100.00
43503;BME280;29098;48.184;16.298;2023-05-21T04:25:16;99446.69;;;12.86;100.00
43503;BME280;29098;48.184;16.298;2023-05-21T04:27:42;99442.28;;;12.93;100.00
43503;BME280;29098;48.184;16.298;2023-05-21T04:30:07;99463.34;;;13.08;100.00
43503;BME280;29098;48.184;16.298;2023-05-21T04:32:33;99482.13;;;13.20;100.00
43503;BME280;29098;48.184;16.298;2023-05-21T04:34:59;99451.53;;;13.11;100.00
43503;BME280;29098;48.184;16.298;2023-05-21T04:37:26;99502.19;;;13.36;100.00
43503;BME280;29098;48.184;16.298;2023-05-21T04:39:53;99482.38;;;13.25;100.00
43503;BME280;29098;48.184;16.298;2023-05-21T04:42:18;99478.72;;;13.26;100.00
43503;BME280;29098;48.184;16.298;2023-05-21T04:44:44;99441.84;;;13.25;100.00
43503;BME280;29098;48.184;16.298;2023-05-21T04:47:10;99496.59;;;13.60;100.00
43503;BME280;29098;48.184;16.298;2023-05-21T04:49:38;99497.84;;;13.64;100.00
43503;BME280;29098;48.184;16.298;2023-05-21T04:52:04;99470.13;;;13.66;100.00
43503;BME280;29098;48.184;16.298;2023-05-21T04:54:29;99480.38;;;13.83;100.00
43503;BME280;29098;48.184;16.298;2023-05-21T04:56:55;99498.75;;;13.98;100.00
43503;BME280;29098;48.184;16.298;2023-05-21T04:59:22;99493.88;;;14.02;100.00
43503;BME280;29098;48.184;16.298;2023-05-21T05:01:47;99477.13;;;13.94;100.00
43503;BME280;29098;48.184;16.298;2023-05-21T05:04:13;99475.50;;;14.00;100.00
43503;BME280;29098;48.184;16.298;2023-05-21T05:06:38;99416.59;;;14.05;100.00
43503;BME280;29098;48.184;16.298;2023-05-21T05:09:04;99455.56;;;14.11;100.00
43503;BME280;29098;48.184;16.298;2023-05-21T05:11:29;99441.28;;;14.12;100.00
43503;BME280;29098;48.184;16.298;2023-05-21T05:13:55;99436.16;;;14.04;100.00
43503;BME280;29098;48.184;16.298;2023-05-21T05:16:21;99467.78;;;14.32;100.00
43503;BME280;29098;48.184;16.298;2023-05-21T05:18:52;99480.88;;;14.47;100.00
43503;BME280;29098;48.184;16.298;2023-05-21T05:21:17;99457.00;;;14.34;100.00
43503;BME280;29098;48.184;16.298;2023-05-21T05:23:43;99455.59;;;14.38;100.00
43503;BME280;29098;48.184;16.298;2023-05-21T05:26:09;99448.22;;;14.54;100.00
43503;BME280;29098;48.184;16.298;2023-05-21T05:28:35;99471.28;;;14.73;100.00
43503;BME280;29098;48.184;16.298;2023-05-21T05:31:00;99464.97;;;14.74;100.00
43503;BME280;29098;48.184;16.298;2023-05-21T05:33:26;99454.34;;;14.81;100.00
43503;BME280;29098;48.184;16.298;2023-05-21T05:35:51;99430.28;;;14.83;100.00
43503;BME280;29098;48.184;16.298;2023-05-21T05:38:17;99466.97;;;14.99;100.00
43503;BME280;29098;48.184;16.298;2023-05-21T05:40:42;99486.75;;;15.17;100.00
43503;BME280;29098;48.184;16.298;2023-05-21T05:43:08;99483.44;;;15.28;100.00
43503;BME280;29098;48.184;16.298;2023-05-21T05:45:33;99464.63;;;15.30;100.00
43503;BME280;29098;48.184;16.298;2023-05-21T05:47:58;99486.44;;;15.52;100.00
43503;BME280;29098;48.184;16.298;2023-05-21T05:50:24;99447.22;;;15.41;100.00
43503;BME280;29098;48.184;16.298;2023-05-21T05:52:49;99479.00;;;15.68;100.00
43503;BME280;29098;48.184;16.298;2023-05-21T05:55:15;99437.94;;;15.64;100.00
43503;BME280;29098;48.184;16.298;2023-05-21T05:57:41;99463.84;;;15.75;100.00
43503;BME280;29098;48.184;16.298;2023-05-21T06:00:07;99502.59;;;15.89;100.00
43503;BME280;29098;48.184;16.298;2023-05-21T06:02:34;99467.88;;;15.84;100.00
43503;BME280;29098;48.184;16.298;2023-05-21T06:05:00;99482.97;;;15.97;100.00
43503;BME280;29098;48.184;16.298;2023-05-21T06:07:27;99479.22;;;16.05;100.00
43503;BME280;29098;48.184;16.298;2023-05-21T06:09:53;99461.56;;;16.18;100.00
43503;BME280;29098;48.184;16.298;2023-05-21T06:12:18;99455.09;;;16.32;100.00
43503;BME280;29098;48.184;16.298;2023-05-21T06:14:43;99498.25;;;16.34;100.00
43503;BME280;29098;48.184;16.298;2023-05-21T06:17:10;99483.88;;;16.42;100.00
43503;BME280;29098;48.184;16.298;2023-05-21T06:19:36;99476.88;;;16.48;100.00
43503;BME280;29098;48.184;16.298;2023-05-21T06:22:01;99467.06;;;16.48;100.00
43503;BME280;29098;48.184;16.298;2023-05-21T06:24:27;99488.44;;;16.60;100.00
43503;BME280;29098;48.184;16.298;2023-05-21T06:26:52;99449.78;;;16.57;100.00
43503;BME280;29098;48.184;16.298;2023-05-21T06:29:17;99445.41;;;16.63;100.00
43503;BME280;29098;48.184;16.298;2023-05-21T06:31:43;99488.84;;;16.82;100.00
43503;BME280;29098;48.184;16.298;2023-05-21T06:34:08;99451.38;;;16.84;100.00
43503;BME280;29098;48.184;16.298;2023-05-21T06:36:35;99470.69;;;16.98;100.00
43503;BME280;29098;48.184;16.298;2023-05-21T06:39:02;99468.59;;;17.07;100.00
43503;BME280;29098;48.184;16.298;2023-05-21T06:41:27;99461.59;;;17.06;100.00
43503;BME280;29098;48.184;16.298;2023-05-21T06:43:53;99436.97;;;17.29;100.00
43503;BME280;29098;48.184;16.298;2023-05-21T06:46:18;99477.88;;;17.35;100.00
43503;BME280;29098;48.184;16.298;2023-05-21T06:48:44;99487.28;;;17.56;99.37
43503;BME280;29098;48.184;16.298;2023-05-21T06:51:10;99471.50;;;17.55;97.53
43503;BME280;29098;48.184;16.298;2023-05-21T06:53:36;99484.31;;;17.64;96.48
43503;BME280;29098;48.184;16.298;2023-05-21T06:56:01;99487.28;;;17.87;92.74
43503;BME280;29098;48.184;16.298;2023-05-21T06:58:27;99499.19;;;18.03;93.03
43503;BME280;29098;48.184;16.298;2023-05-21T07:00:56;99485.56;;;17.92;92.61
43503;BME280;29098;48.184;16.298;2023-05-21T07:03:21;99498.47;;;17.96;93.50
43503;BME280;29098;48.184;16.298;2023-05-21T07:05:47;99474.53;;;18.07;91.54
43503;BME280;29098;48.184;16.298;2023-05-21T07:08:12;99475.91;;;18.10;91.25
43503;BME280;29098;48.184;16.298;2023-05-21T07:10:37;99421.91;;;17.96;91.22
43503;BME280;29098;48.184;16.298;2023-05-21T07:13:03;99452.63;;;18.29;89.66
43503;BME280;29098;48.184;16.298;2023-05-21T07:15:28;99433.34;;;18.15;88.59
43503;BME280;29098;48.184;16.298;2023-05-21T07:17:54;99460.53;;;18.36;89.66
43503;BME280;29098;48.184;16.298;2023-05-21T07:20:20;99478.41;;;18.59;89.88
43503;BME280;29098;48.184;16.298;2023-05-21T07:22:45;99439.19;;;18.72;87.35
43503;BME280;29098;48.184;16.298;2023-05-21T07:25:10;99442.91;;;18.71;87.43
43503;BME280;29098;48.184;16.298;2023-05-21T07:27:36;99471.34;;;18.77;87.77
43503;BME280;29098;48.184;16.298;2023-05-21T07:30:01;99472.38;;;19.00;86.22
43503;BME280;29098;48.184;16.298;2023-05-21T07:32:27;99459.13;;;19.05;85.83
43503;BME280;29098;48.184;16.298;2023-05-21T07:34:53;99463.69;;;19.05;85.62
43503;BME280;29098;48.184;16.298;2023-05-21T07:37:19;99455.28;;;19.25;84.62
43503;BME280;29098;48.184;16.298;2023-05-21T07:39:45;99434.22;;;19.28;84.57
43503;BME280;29098;48.184;16.298;2023-05-21T07:42:10;99438.75;;;19.28;84.39
43503;BME280;29098;48.184;16.298;2023-05-21T07:44:36;99465.31;;;19.47;84.85
43503;BME280;29098;48.184;16.298;2023-05-21T07:47:01;99434.88;;;19.48;84.06
43503;BME280;29098;48.184;16.298;2023-05-21T07:49:27;99461.34;;;19.78;82.78
43503;BME280;29098;48.184;16.298;2023-05-21T07:51:52;99441.28;;;19.76;80.29
43503;BME280;29098;48.184;16.298;2023-05-21T07:54:17;99483.28;;;19.92;79.32
43503;BME280;29098;48.184;16.298;2023-05-21T07:56:43;99463.59;;;19.98;80.45
43503;BME280;29098;48.184;16.298;2023-05-21T07:59:09;99435.13;;;19.92;80.82
43503;BME280;29098;48.184;16.298;2023-05-21T08:01:34;99465.72;;;19.96;82.18
43503;BME280;29098;48.184;16.298;2023-05-21T08:04:01;99440.50;;;20.09;81.94
43503;BME280;29098;48.184;16.298;2023-05-21T08:06:30;99448.63;;;20.15;82.24
43503;BME280;29098;48.184;16.298;2023-05-21T08:08:59;99470.19;;;20.25;81.88
43503;BME280;29098;48.184;16.298;2023-05-21T08:11:26;99462.50;;;20.46;82.45
43503;BME280;29098;48.184;16.298;2023-05-21T08:13:52;99423.16;;;20.29;79.59
43503;BME280;29098;48.184;16.298;2023-05-21T08:16:17;99479.44;;;20.51;78.33
43503;BME280;29098;48.184;16.298;2023-05-21T08:18:43;99461.75;;;20.50;80.56
43503;BME280;29098;48.184;16.298;2023-05-21T08:21:08;99461.13;;;20.43;80.64
43503;BME280;29098;48.184;16.298;2023-05-21T08:23:34;99465.69;;;20.43;80.89
43503;BME280;29098;48.184;16.298;2023-05-21T08:25:59;99450.91;;;20.57;81.33
43503;BME280;29098;48.184;16.298;2023-05-21T08:28:24;99449.09;;;20.63;80.57
43503;BME280;29098;48.184;16.298;2023-05-21T08:30:51;99472.38;;;20.62;81.58
43503;BME280;29098;48.184;16.298;2023-05-21T08:33:17;99481.06;;;20.70;78.75
43503;BME280;29098;48.184;16.298;2023-05-21T08:35:42;99467.44;;;20.71;79.10
43503;BME280;29098;48.184;16.298;2023-05-21T08:38:07;99443.09;;;20.56;79.16
43503;BME280;29098;48.184;16.298;2023-05-21T08:40:33;99441.25;;;20.39;79.13
43503;BME280;29098;48.184;16.298;2023-05-21T08:42:59;99447.31;;;20.51;81.69
43503;BME280;29098;48.184;16.298;2023-05-21T08:45:25;99483.25;;;20.73;80.59
43503;BME280;29098;48.184;16.298;2023-05-21T08:47:55;99479.34;;;20.80;78.00
43503;BME280;29098;48.184;16.298;2023-05-21T08:50:23;99444.28;;;20.65;82.55
43503;BME280;29098;48.184;16.298;2023-05-21T08:52:50;99460.75;;;20.91;80.68
43503;BME280;29098;48.184;16.298;2023-05-21T08:55:16;99449.44;;;20.84;77.26
43503;BME280;29098;48.184;16.298;2023-05-21T08:57:42;99457.50;;;20.89;79.27
43503;BME280;29098;48.184;16.298;2023-05-21T09:00:09;99449.88;;;20.80;80.52
43503;BME280;29098;48.184;16.298;2023-05-21T09:02:37;99460.91;;;21.01;79.75
43503;BME280;29098;48.184;16.298;2023-05-21T09:05:05;99410.47;;;20.98;77.79
43503;BME280;29098;48.184;16.298;2023-05-21T09:07:33;99427.09;;;21.23;76.94
43503;BME280;29098;48.184;16.298;2023-05-21T09:10:06;99468.66;;;21.47;76.64
43503;BME280;29098;48.184;16.298;2023-05-21T09:12:34;99423.81;;;21.38;73.58
43503;BME280;29098;48.184;16.298;2023-05-21T09:15:00;99423.75;;;21.32;75.64
43503;BME280;29098;48.184;16.298;2023-05-21T09:17:26;99449.50;;;21.33;73.95
43503;BME280;29098;48.184;16.298;2023-05-21T09:20:07;99437.75;;;21.40;74.21
43503;BME280;29098;48.184;16.298;2023-05-21T09:22:35;99467.38;;;21.50;72.73
43503;BME280;29098;48.184;16.298;2023-05-21T09:25:04;99421.06;;;21.32;73.44
43503;BME280;29098;48.184;16.298;2023-05-21T09:27:31;99418.06;;;21.29;73.88
43503;BME280;29098;48.184;16.298;2023-05-21T09:29:56;99426.34;;;21.49;73.04
43503;BME280;29098;48.184;16.298;2023-05-21T09:32:22;99443.03;;;21.79;72.21
43503;BME280;29098;48.184;16.298;2023-05-21T09:34:47;99429.25;;;21.70;71.32
43503;BME280;29098;48.184;16.298;2023-05-21T09:37:14;99418.03;;;21.51;72.71
43503;BME280;29098;48.184;16.298;2023-05-21T09:39:40;99422.66;;;21.83;73.30
43503;BME280;29098;48.184;16.298;2023-05-21T09:42:06;99443.69;;;21.97;72.84
43503;BME280;29098;48.184;16.298;2023-05-21T09:44:33;99466.78;;;21.98;69.65
43503;BME280;29098;48.184;16.298;2023-05-21T09:46:59;99450.69;;;21.98;70.92
43503;BME280;29098;48.184;16.298;2023-05-21T09:49:26;99423.25;;;21.90;69.47
43503;BME280;29098;48.184;16.298;2023-05-21T09:51:56;99445.91;;;22.00;69.72
43503;BME280;29098;48.184;16.298;2023-05-21T09:54:22;99427.25;;;22.21;70.70
43503;BME280;29098;48.184;16.298;2023-05-21T09:56:50;99461.25;;;22.42;70.79
43503;BME280;29098;48.184;16.298;2023-05-21T09:59:16;99453.06;;;22.60;65.00
43503;BME280;29098;48.184;16.298;2023-05-21T10:01:41;99430.13;;;22.47;64.96
43503;BME280;29098;48.184;16.298;2023-05-21T10:04:08;99420.50;;;22.51;64.64
43503;BME280;29098;48.184;16.298;2023-05-21T10:06:37;99412.50;;;22.56;64.63
43503;BME280;29098;48.184;16.298;2023-05-21T10:09:10;99440.81;;;22.74;64.93
43503;BME280;29098;48.184;16.298;2023-05-21T10:11:42;99427.03;;;22.65;65.21
43503;BME280;29098;48.184;16.298;2023-05-21T10:14:13;99420.09;;;22.75;65.27
43503;BME280;29098;48.184;16.298;2023-05-21T10:16:39;99430.41;;;22.93;63.00
43503;BME280;29098;48.184;16.298;2023-05-21T10:19:05;99426.38;;;22.91;63.88
43503;BME280;29098;48.184;16.298;2023-05-21T10:21:35;99437.47;;;23.10;63.83
43503;BME280;29098;48.184;16.298;2023-05-21T10:24:01;99421.59;;;23.03;62.65
43503;BME280;29098;48.184;16.298;2023-05-21T10:26:27;99425.69;;;23.26;62.41
43503;BME280;29098;48.184;16.298;2023-05-21T10:28:55;99436.00;;;23.50;60.46
43503;BME280;29098;48.184;16.298;2023-05-21T10:31:22;99410.38;;;23.27;59.68
43503;BME280;29098;48.184;16.298;2023-05-21T10:33:47;99460.28;;;23.76;58.19
43503;BME280;29098;48.184;16.298;2023-05-21T10:36:15;99423.09;;;23.52;59.40
43503;BME280;29098;48.184;16.298;2023-05-21T10:38:42;99411.28;;;23.64;59.69
43503;BME280;29098;48.184;16.298;2023-05-21T10:41:10;99413.69;;;23.71;60.29
43503;BME280;29098;48.184;16.298;2023-05-21T10:44:06;99409.97;;;23.98;59.71
43503;BME280;29098;48.184;16.298;2023-05-21T10:46:59;99405.13;;;24.05;56.08
43503;BME280;29098;48.184;16.298;2023-05-21T10:55:16;99391.91;;;24.40;57.36
43503;BME280;29098;48.184;16.298;2023-05-21T11:00:11;99352.78;;;24.58;57.67
43503;BME280;29098;48.184;16.298;2023-05-21T11:02:37;99411.13;;;24.99;56.51
43503;BME280;29098;48.184;16.298;2023-05-21T11:05:03;99406.22;;;25.11;55.71
43503;BME280;29098;48.184;16.298;2023-05-21T11:07:51;99394.88;;;25.14;55.32
43503;BME280;29098;48.184;16.298;2023-05-21T11:10:37;99379.19;;;25.22;53.16
43503;BME280;29098;48.184;16.298;2023-05-21T11:13:14;99409.84;;;25.41;52.21
43503;BME280;29098;48.184;16.298;2023-05-21T11:21:04;99382.19;;;25.65;49.72
43503;BME280;29098;48.184;16.298;2023-05-21T11:26:18;99378.34;;;25.77;50.67
43503;BME280;29098;48.184;16.298;2023-05-21T11:28:44;99374.59;;;25.67;50.61
43503;BME280;29098;48.184;16.298;2023-05-21T11:31:41;99359.97;;;25.74;49.29
43503;BME280;29098;48.184;16.298;2023-05-21T11:34:22;99390.69;;;25.83;48.23
43503;BME280;29098;48.184;16.298;2023-05-21T11:39:42;99366.47;;;25.73;50.03
43503;BME280;29098;48.184;16.298;2023-05-21T11:42:07;99381.75;;;26.17;52.58
43503;BME280;29098;48.184;16.298;2023-05-21T11:44:37;99392.25;;;26.24;50.05
43503;BME280;29098;48.184;16.298;2023-05-21T11:47:04;99355.00;;;26.21;49.14
43503;BME280;29098;48.184;16.298;2023-05-21T11:49:30;99396.16;;;26.37;49.18
43503;BME280;29098;48.184;16.298;2023-05-21T11:51:57;99389.16;;;26.36;46.67
43503;BME280;29098;48.184;16.298;2023-05-21T11:54:23;99372.94;;;26.36;47.33
43503;BME280;29098;48.184;16.298;2023-05-21T11:56:50;99372.31;;;26.44;51.02
43503;BME280;29098;48.184;16.298;2023-05-21T11:59:16;99380.09;;;26.51;49.11
43503;BME280;29098;48.184;16.298;2023-05-21T12:01:42;99346.50;;;26.33;47.11
43503;BME280;29098;48.184;16.298;2023-05-21T12:04:09;99355.97;;;26.55;46.90
43503;BME280;29098;48.184;16.298;2023-05-21T12:06:41;99352.66;;;26.63;47.01
43503;BME280;29098;48.184;16.298;2023-05-21T12:09:10;99353.91;;;26.46;47.08
43503;BME280;29098;48.184;16.298;2023-05-21T12:11:42;99385.13;;;26.58;46.07
43503;BME280;29098;48.184;16.298;2023-05-21T12:14:09;99356.25;;;26.77;47.24
43503;BME280;29098;48.184;16.298;2023-05-21T12:16:35;99363.88;;;26.94;48.54
43503;BME280;29098;48.184;16.298;2023-05-21T12:19:02;99353.06;;;26.94;46.22
43503;BME280;29098;48.184;16.298;2023-05-21T12:21:28;99363.53;;;27.40;46.17
43503;BME280;29098;48.184;16.298;2023-05-21T12:23:55;99366.16;;;27.45;44.13
43503;BME280;29098;48.184;16.298;2023-05-21T12:26:21;99374.81;;;27.66;44.49
43503;BME280;29098;48.184;16.298;2023-05-21T12:28:50;99348.94;;;27.74;45.03
43503;BME280;29098;48.184;16.298;2023-05-21T12:31:16;99337.78;;;27.61;44.42
43503;BME280;29098;48.184;16.298;2023-05-21T12:33:47;99372.09;;;27.66;44.99
43503;BME280;29098;48.184;16.298;2023-05-21T12:36:29;99347.63;;;27.71;45.36
43503;BME280;29098;48.184;16.298;2023-05-21T12:38:56;99357.00;;;27.79;45.55
43503;BME280;29098;48.184;16.298;2023-05-21T12:41:22;99347.06;;;27.88;46.90
43503;BME280;29098;48.184;16.298;2023-05-21T12:43:49;99310.59;;;28.14;45.59
43503;BME280;29098;48.184;16.298;2023-05-21T12:46:15;99305.53;;;28.07;44.00
43503;BME280;29098;48.184;16.298;2023-05-21T12:49:02;99296.91;;;28.05;43.91
43503;BME280;29098;48.184;16.298;2023-05-21T12:51:38;99324.91;;;27.86;42.63
43503;BME280;29098;48.184;16.298;2023-05-21T12:54:10;99306.22;;;27.71;41.28
43503;BME280;29098;48.184;16.298;2023-05-21T12:56:43;99317.97;;;27.80;42.70
43503;BME280;29098;48.184;16.298;2023-05-21T12:59:14;99327.91;;;27.99;43.39
43503;BME280;29098;48.184;16.298;2023-05-21T13:01:46;99318.03;;;27.75;42.85
43503;BME280;29098;48.184;16.298;2023-05-21T13:04:12;99303.72;;;27.74;42.59
43503;BME280;29098;48.184;16.298;2023-05-21T13:06:44;99331.19;;;28.29;44.80
43503;BME280;29098;48.184;16.298;2023-05-21T13:09:09;99282.97;;;27.98;44.04